sensor_id;sensor_type;location;lat;lon;timestamp;temperature;humidity
13091;DHT22;6611;52.604;13.438;2023-04-29T00:01:51;12.17;78.10
13091;DHT22;6611;52.604;13.438;2023-04-29T00:06:52;12.13;77.81
13091;DHT22;6611;52.604;13.438;2023-04-29T00:11:55;12.11;78.08
13091;DHT22;6611;52.604;13.438;2023-04-29T00:16:57;12.18;77.79
13091;DHT22;6611;52.604;13.438;2023-04-29T00:21:59;12.13;78.11
13091;DHT22;6611;52.604;13.438;2023-04-29T00:27:02;12.08;77.85
13091;DHT22;6611;52.604;13.438;2023-04-29T00:32:05;12.05;77.92
13091;DHT22;6611;52.604;13.438;2023-04-29T00:37:06;12.02;77.98
13091;DHT22;6611;52.604;13.438;2023-04-29T00:42:10;12.01;78.41
13091;DHT22;6611;52.604;13.438;2023-04-29T00:47:12;12.05;78.15
13091;DHT22;6611;52.604;13.438;2023-04-29T00:52:13;12.04;78.44
13091;DHT22;6611;52.604;13.438;2023-04-29T00:57:18;11.97;78.68
13091;DHT22;6611;52.604;13.438;2023-04-29T01:02:20;11.91;78.95
13091;DHT22;6611;52.604;13.438;2023-04-29T01:07:27;11.93;79.01
13091;DHT22;6611;52.604;13.438;2023-04-29T01:12:38;11.84;79.38
13091;DHT22;6611;52.604;13.438;2023-04-29T01:17:43;11.86;79.44
13091;DHT22;6611;52.604;13.438;2023-04-29T01:22:49;11.80;79.74
13091;DHT22;6611;52.604;13.438;2023-04-29T01:28:01;11.83;81.18
13091;DHT22;6611;52.604;13.438;2023-04-29T01:33:09;11.80;83.07
13091;DHT22;6611;52.604;13.438;2023-04-29T01:38:22;11.73;83.92
13091;DHT22;6611;52.604;13.438;2023-04-29T01:43:29;11.62;84.36
13091;DHT22;6611;52.604;13.438;2023-04-29T01:48:33;11.48;85.05
13091;DHT22;6611;52.604;13.438;2023-04-29T01:53:34;11.35;85.44
13091;DHT22;6611;52.604;13.438;2023-04-29T01:58:37;11.39;85.71
13091;DHT22;6611;52.604;13.438;2023-04-29T02:03:39;11.34;86.03
13091;DHT22;6611;52.604;13.438;2023-04-29T02:08:41;11.38;86.11
13091;DHT22;6611;52.604;13.438;2023-04-29T02:13:44;11.35;86.35
13091;DHT22;6611;52.604;13.438;2023-04-29T02:18:46;11.31;86.49
13091;DHT22;6611;52.604;13.438;2023-04-29T02:23:48;11.22;86.70
13091;DHT22;6611;52.604;13.438;2023-04-29T02:28:51;11.17;86.78
13091;DHT22;6611;52.604;13.438;2023-04-29T02:33:53;11.08;87.11
13091;DHT22;6611;52.604;13.438;2023-04-29T02:38:54;11.15;87.33
13091;DHT22;6611;52.604;13.438;2023-04-29T02:43:57;11.20;87.34
13091;DHT22;6611;52.604;13.438;2023-04-29T02:48:59;11.28;87.29
13091;DHT22;6611;52.604;13.438;2023-04-29T02:54:01;11.27;87.33
13091;DHT22;6611;52.604;13.438;2023-04-29T02:59:04;11.29;87.45
13091;DHT22;6611;52.604;13.438;2023-04-29T03:04:06;11.29;87.73
13091;DHT22;6611;52.604;13.438;2023-04-29T03:09:07;11.31;87.76
13091;DHT22;6611;52.604;13.438;2023-04-29T03:14:10;11.25;88.20
13091;DHT22;6611;52.604;13.438;2023-04-29T03:19:12;11.29;88.08
13091;DHT22;6611;52.604;13.438;2023-04-29T03:24:14;11.31;88.17
13091;DHT22;6611;52.604;13.438;2023-04-29T03:29:17;11.36;88.09
13091;DHT22;6611;52.604;13.438;2023-04-29T03:34:19;11.32;88.48
13091;DHT22;6611;52.604;13.438;2023-04-29T03:39:20;11.45;88.27
13091;DHT22;6611;52.604;13.438;2023-04-29T03:44:23;11.51;88.41
13091;DHT22;6611;52.604;13.438;2023-04-29T03:49:25;11.54;88.28
13091;DHT22;6611;52.604;13.438;2023-04-29T03:54:27;11.56;88.52
13091;DHT22;6611;52.604;13.438;2023-04-29T03:59:30;11.55;88.71
13091;DHT22;6611;52.604;13.438;2023-04-29T04:04:31;11.59;88.68
13091;DHT22;6611;52.604;13.438;2023-04-29T04:09:33;11.65;88.71
13091;DHT22;6611;52.604;13.438;2023-04-29T04:14:36;11.67;88.44
13091;DHT22;6611;52.604;13.438;2023-04-29T04:19:38;11.69;88.83
13091;DHT22;6611;52.604;13.438;2023-04-29T04:24:40;11.74;88.98
13091;DHT22;6611;52.604;13.438;2023-04-29T04:29:43;11.87;88.48
13091;DHT22;6611;52.604;13.438;2023-04-29T04:34:44;11.91;88.62
13091;DHT22;6611;52.604;13.438;2023-04-29T04:39:46;11.95;88.65
13091;DHT22;6611;52.604;13.438;2023-04-29T04:44:51;12.02;88.48
13091;DHT22;6611;52.604;13.438;2023-04-29T04:49:53;12.13;88.25
13091;DHT22;6611;52.604;13.438;2023-04-29T04:54:54;12.13;88.46
13091;DHT22;6611;52.604;13.438;2023-04-29T04:59:58;12.11;88.59
13091;DHT22;6611;52.604;13.438;2023-04-29T05:05:00;12.18;88.42
13091;DHT22;6611;52.604;13.438;2023-04-29T05:10:02;12.16;88.74
13091;DHT22;6611;52.604;13.438;2023-04-29T05:15:08;12.22;88.80
13091;DHT22;6611;52.604;13.438;2023-04-29T05:20:10;12.27;88.87
13091;DHT22;6611;52.604;13.438;2023-04-29T05:25:12;12.28;89.14
13091;DHT22;6611;52.604;13.438;2023-04-29T05:30:15;12.27;89.30
13091;DHT22;6611;52.604;13.438;2023-04-29T05:35:17;12.32;89.45
13091;DHT22;6611;52.604;13.438;2023-04-29T05:40:19;12.32;89.61
13091;DHT22;6611;52.604;13.438;2023-04-29T05:45:23;12.31;89.64
13091;DHT22;6611;52.604;13.438;2023-04-29T05:50:25;12.35;89.75
13091;DHT22;6611;52.604;13.438;2023-04-29T05:55:27;12.39;89.88
13091;DHT22;6611;52.604;13.438;2023-04-29T06:00:30;12.39;90.00
13091;DHT22;6611;52.604;13.438;2023-04-29T06:05:32;12.41;89.91
13091;DHT22;6611;52.604;13.438;2023-04-29T06:10:34;12.45;90.14
13091;DHT22;6611;52.604;13.438;2023-04-29T06:15:37;12.48;90.15
13091;DHT22;6611;52.604;13.438;2023-04-29T06:20:39;12.48;90.26
13091;DHT22;6611;52.604;13.438;2023-04-29T06:25:41;12.43;90.65
13091;DHT22;6611;52.604;13.438;2023-04-29T06:30:44;12.45;90.72
13091;DHT22;6611;52.604;13.438;2023-04-29T06:35:46;12.46;90.40
13091;DHT22;6611;52.604;13.438;2023-04-29T06:40:47;12.49;90.21
13091;DHT22;6611;52.604;13.438;2023-04-29T06:45:50;12.50;90.04
13091;DHT22;6611;52.604;13.438;2023-04-29T06:50:54;12.52;89.90
13091;DHT22;6611;52.604;13.438;2023-04-29T06:55:56;12.36;90.17
13091;DHT22;6611;52.604;13.438;2023-04-29T07:00:59;12.41;90.02
13091;DHT22;6611;52.604;13.438;2023-04-29T07:06:02;12.36;90.24
13091;DHT22;6611;52.604;13.438;2023-04-29T07:11:04;12.34;90.38
13091;DHT22;6611;52.604;13.438;2023-04-29T07:16:15;12.35;90.20
13091;DHT22;6611;52.604;13.438;2023-04-29T07:21:17;12.36;90.32
13091;DHT22;6611;52.604;13.438;2023-04-29T07:26:19;12.25;90.39
13091;DHT22;6611;52.604;13.438;2023-04-29T07:31:22;12.34;90.05
13091;DHT22;6611;52.604;13.438;2023-04-29T07:36:23;12.42;89.50
13091;DHT22;6611;52.604;13.438;2023-04-29T07:41:25;12.29;89.10
13091;DHT22;6611;52.604;13.438;2023-04-29T07:46:28;12.29;89.42
13091;DHT22;6611;52.604;13.438;2023-04-29T07:51:30;12.31;89.39
13091;DHT22;6611;52.604;13.438;2023-04-29T07:56:32;12.27;89.10
13091;DHT22;6611;52.604;13.438;2023-04-29T08:01:35;12.04;89.60
13091;DHT22;6611;52.604;13.438;2023-04-29T08:06:36;12.22;89.22
13091;DHT22;6611;52.604;13.438;2023-04-29T08:11:38;12.14;88.95
13091;DHT22;6611;52.604;13.438;2023-04-29T08:16:41;12.14;88.71
13091;DHT22;6611;52.604;13.438;2023-04-29T08:21:43;12.21;88.98
13091;DHT22;6611;52.604;13.438;2023-04-29T08:26:44;12.24;88.17
13091;DHT22;6611;52.604;13.438;2023-04-29T08:31:48;12.22;88.24
13091;DHT22;6611;52.604;13.438;2023-04-29T08:36:50;12.22;87.58
13091;DHT22;6611;52.604;13.438;2023-04-29T08:41:51;12.20;87.64
13091;DHT22;6611;52.604;13.438;2023-04-29T08:46:56;12.08;87.96
13091;DHT22;6611;52.604;13.438;2023-04-29T08:52:00;11.97;87.36
13091;DHT22;6611;52.604;13.438;2023-04-29T08:57:02;12.14;86.48
13091;DHT22;6611;52.604;13.438;2023-04-29T09:02:07;11.87;87.19
13091;DHT22;6611;52.604;13.438;2023-04-29T09:07:12;11.63;88.06
13091;DHT22;6611;52.604;13.438;2023-04-29T09:12:14;11.62;88.75
13091;DHT22;6611;52.604;13.438;2023-04-29T09:17:17;11.49;88.58
13091;DHT22;6611;52.604;13.438;2023-04-29T09:22:19;11.36;88.79
13091;DHT22;6611;52.604;13.438;2023-04-29T09:27:27;11.28;88.90
13091;DHT22;6611;52.604;13.438;2023-04-29T09:32:30;11.21;89.13
13091;DHT22;6611;52.604;13.438;2023-04-29T09:37:32;11.21;88.75
13091;DHT22;6611;52.604;13.438;2023-04-29T09:42:41;11.15;89.09
13091;DHT22;6611;52.604;13.438;2023-04-29T09:47:44;11.18;89.00
13091;DHT22;6611;52.604;13.438;2023-04-29T09:52:46;11.28;88.96
13091;DHT22;6611;52.604;13.438;2023-04-29T09:57:48;11.35;89.10
13091;DHT22;6611;52.604;13.438;2023-04-29T10:02:53;11.54;88.17
13091;DHT22;6611;52.604;13.438;2023-04-29T10:07:55;11.67;88.10
13091;DHT22;6611;52.604;13.438;2023-04-29T10:12:59;11.90;87.55
13091;DHT22;6611;52.604;13.438;2023-04-29T10:18:12;11.80;87.26
13091;DHT22;6611;52.604;13.438;2023-04-29T10:23:15;11.80;86.12
13091;DHT22;6611;52.604;13.438;2023-04-29T10:28:19;12.07;85.45
13091;DHT22;6611;52.604;13.438;2023-04-29T10:33:24;12.18;85.73
13091;DHT22;6611;52.604;13.438;2023-04-29T10:38:31;12.05;85.27
13091;DHT22;6611;52.604;13.438;2023-04-29T10:43:34;12.08;83.42
13091;DHT22;6611;52.604;13.438;2023-04-29T10:48:37;12.16;84.95
13091;DHT22;6611;52.604;13.438;2023-04-29T10:53:58;12.38;84.37
13091;DHT22;6611;52.604;13.438;2023-04-29T10:59:01;12.50;82.94
13091;DHT22;6611;52.604;13.438;2023-04-29T11:04:04;13.00;82.03
13091;DHT22;6611;52.604;13.438;2023-04-29T11:09:09;13.69;78.35
13091;DHT22;6611;52.604;13.438;2023-04-29T11:14:12;13.76;79.03
13091;DHT22;6611;52.604;13.438;2023-04-29T11:19:15;13.62;77.70
13091;DHT22;6611;52.604;13.438;2023-04-29T11:24:17;13.94;77.27
13091;DHT22;6611;52.604;13.438;2023-04-29T11:29:20;14.52;75.30
13091;DHT22;6611;52.604;13.438;2023-04-29T11:34:25;14.77;76.02
13091;DHT22;6611;52.604;13.438;2023-04-29T11:39:28;14.66;76.53
13091;DHT22;6611;52.604;13.438;2023-04-29T11:44:30;14.56;75.54
13091;DHT22;6611;52.604;13.438;2023-04-29T11:49:35;14.38;74.52
13091;DHT22;6611;52.604;13.438;2023-04-29T11:54:37;14.47;73.58
13091;DHT22;6611;52.604;13.438;2023-04-29T11:59:41;14.45;72.65
13091;DHT22;6611;52.604;13.438;2023-04-29T12:04:47;14.46;73.90
13091;DHT22;6611;52.604;13.438;2023-04-29T12:09:49;14.21;73.69
13091;DHT22;6611;52.604;13.438;2023-04-29T12:14:51;14.35;74.48
13091;DHT22;6611;52.604;13.438;2023-04-29T12:19:55;14.42;74.27
13091;DHT22;6611;52.604;13.438;2023-04-29T12:24:57;14.60;73.41
13091;DHT22;6611;52.604;13.438;2023-04-29T12:29:59;14.52;73.11
13091;DHT22;6611;52.604;13.438;2023-04-29T12:35:02;14.29;73.24
13091;DHT22;6611;52.604;13.438;2023-04-29T12:40:05;14.35;73.29
13091;DHT22;6611;52.604;13.438;2023-04-29T12:45:07;14.60;73.03
13091;DHT22;6611;52.604;13.438;2023-04-29T12:50:11;14.77;71.58
13091;DHT22;6611;52.604;13.438;2023-04-29T12:55:12;15.07;71.02
13091;DHT22;6611;52.604;13.438;2023-04-29T13:00:14;15.35;69.85
13091;DHT22;6611;52.604;13.438;2023-04-29T13:05:18;15.56;70.58
13091;DHT22;6611;52.604;13.438;2023-04-29T13:10:19;15.73;69.18
13091;DHT22;6611;52.604;13.438;2023-04-29T13:15:21;15.63;69.45
13091;DHT22;6611;52.604;13.438;2023-04-29T13:20:24;15.70;68.43
13091;DHT22;6611;52.604;13.438;2023-04-29T13:25:26;15.56;70.10
13091;DHT22;6611;52.604;13.438;2023-04-29T13:30:28;15.50;69.59
13091;DHT22;6611;52.604;13.438;2023-04-29T13:35:31;15.28;67.62
13091;DHT22;6611;52.604;13.438;2023-04-29T13:40:35;15.60;69.12
13091;DHT22;6611;52.604;13.438;2023-04-29T13:45:36;15.39;68.47
13091;DHT22;6611;52.604;13.438;2023-04-29T13:50:39;15.38;68.64
13091;DHT22;6611;52.604;13.438;2023-04-29T13:55:41;15.15;68.02
13091;DHT22;6611;52.604;13.438;2023-04-29T14:00:43;15.46;68.36
13091;DHT22;6611;52.604;13.438;2023-04-29T14:05:46;15.61;66.04
13091;DHT22;6611;52.604;13.438;2023-04-29T14:10:48;15.39;68.19
13091;DHT22;6611;52.604;13.438;2023-04-29T14:15:49;15.11;68.36
13091;DHT22;6611;52.604;13.438;2023-04-29T14:20:52;14.97;69.58
13091;DHT22;6611;52.604;13.438;2023-04-29T14:25:55;14.99;69.48
13091;DHT22;6611;52.604;13.438;2023-04-29T14:30:56;15.18;68.40
13091;DHT22;6611;52.604;13.438;2023-04-29T14:35:59;15.56;68.35
13091;DHT22;6611;52.604;13.438;2023-04-29T14:41:01;15.81;66.07
13091;DHT22;6611;52.604;13.438;2023-04-29T14:46:03;15.98;64.50
13091;DHT22;6611;52.604;13.438;2023-04-29T14:51:07;16.06;64.48
13091;DHT22;6611;52.604;13.438;2023-04-29T14:56:08;15.95;65.50
13091;DHT22;6611;52.604;13.438;2023-04-29T15:01:10;16.15;62.45
13091;DHT22;6611;52.604;13.438;2023-04-29T15:06:13;16.30;60.54
13091;DHT22;6611;52.604;13.438;2023-04-29T15:11:15;15.94;63.54
13091;DHT22;6611;52.604;13.438;2023-04-29T15:16:17;15.66;64.13
13091;DHT22;6611;52.604;13.438;2023-04-29T15:21:20;15.40;66.58
13091;DHT22;6611;52.604;13.438;2023-04-29T15:26:22;15.09;66.18
13091;DHT22;6611;52.604;13.438;2023-04-29T15:31:23;14.98;65.93
13091;DHT22;6611;52.604;13.438;2023-04-29T15:36:29;14.80;67.13
13091;DHT22;6611;52.604;13.438;2023-04-29T15:41:32;14.56;67.47
13091;DHT22;6611;52.604;13.438;2023-04-29T15:46:33;14.47;68.37
13091;DHT22;6611;52.604;13.438;2023-04-29T15:51:37;14.46;67.81
13091;DHT22;6611;52.604;13.438;2023-04-29T15:56:38;14.39;70.03
13091;DHT22;6611;52.604;13.438;2023-04-29T16:01:40;14.43;70.40
13091;DHT22;6611;52.604;13.438;2023-04-29T16:06:43;14.66;68.32
13091;DHT22;6611;52.604;13.438;2023-04-29T16:11:45;14.83;66.99
13091;DHT22;6611;52.604;13.438;2023-04-29T16:16:47;14.74;68.02
13091;DHT22;6611;52.604;13.438;2023-04-29T16:21:50;14.67;67.32
13091;DHT22;6611;52.604;13.438;2023-04-29T16:26:51;14.74;66.76
13091;DHT22;6611;52.604;13.438;2023-04-29T16:31:53;14.98;65.90
13091;DHT22;6611;52.604;13.438;2023-04-29T16:36:56;15.32;64.73
13091;DHT22;6611;52.604;13.438;2023-04-29T16:41:58;15.63;62.20
13091;DHT22;6611;52.604;13.438;2023-04-29T16:47:00;15.84;56.06
13091;DHT22;6611;52.604;13.438;2023-04-29T16:52:03;16.04;54.48
13091;DHT22;6611;52.604;13.438;2023-04-29T16:57:05;15.77;53.10
13091;DHT22;6611;52.604;13.438;2023-04-29T17:02:08;15.61;52.71
13091;DHT22;6611;52.604;13.438;2023-04-29T17:07:11;15.38;52.88
13091;DHT22;6611;52.604;13.438;2023-04-29T17:12:13;15.04;54.15
13091;DHT22;6611;52.604;13.438;2023-04-29T17:17:15;14.83;57.33
13091;DHT22;6611;52.604;13.438;2023-04-29T17:22:19;14.47;56.00
13091;DHT22;6611;52.604;13.438;2023-04-29T17:27:21;14.40;55.39
13091;DHT22;6611;52.604;13.438;2023-04-29T17:32:23;14.33;56.47
13091;DHT22;6611;52.604;13.438;2023-04-29T17:37:29;14.10;57.01
13091;DHT22;6611;52.604;13.438;2023-04-29T17:42:31;13.95;58.51
13091;DHT22;6611;52.604;13.438;2023-04-29T17:47:33;13.80;59.82
13091;DHT22;6611;52.604;13.438;2023-04-29T17:52:36;13.80;59.93
13091;DHT22;6611;52.604;13.438;2023-04-29T17:57:37;13.74;60.23
13091;DHT22;6611;52.604;13.438;2023-04-29T18:02:40;13.74;59.52
13091;DHT22;6611;52.604;13.438;2023-04-29T18:07:43;13.81;58.77
13091;DHT22;6611;52.604;13.438;2023-04-29T18:12:44;13.74;59.89
13091;DHT22;6611;52.604;13.438;2023-04-29T18:17:46;13.69;61.43
13091;DHT22;6611;52.604;13.438;2023-04-29T18:22:49;13.52;62.04
13091;DHT22;6611;52.604;13.438;2023-04-29T18:27:51;13.29;63.00
13091;DHT22;6611;52.604;13.438;2023-04-29T18:32:54;13.00;65.12
13091;DHT22;6611;52.604;13.438;2023-04-29T18:37:58;12.69;66.35
13091;DHT22;6611;52.604;13.438;2023-04-29T18:43:00;12.38;67.76
13091;DHT22;6611;52.604;13.438;2023-04-29T18:48:01;12.11;69.31
13091;DHT22;6611;52.604;13.438;2023-04-29T18:53:06;11.82;69.60
13091;DHT22;6611;52.604;13.438;2023-04-29T18:58:07;11.61;69.92
13091;DHT22;6611;52.604;13.438;2023-04-29T19:03:09;11.40;70.65
13091;DHT22;6611;52.604;13.438;2023-04-29T19:08:13;11.17;71.50
13091;DHT22;6611;52.604;13.438;2023-04-29T19:13:15;11.03;72.29
13091;DHT22;6611;52.604;13.438;2023-04-29T19:18:17;10.89;73.00
13091;DHT22;6611;52.604;13.438;2023-04-29T19:23:23;10.73;73.47
13091;DHT22;6611;52.604;13.438;2023-04-29T19:28:24;10.59;73.81
13091;DHT22;6611;52.604;13.438;2023-04-29T19:33:26;10.52;74.86
13091;DHT22;6611;52.604;13.438;2023-04-29T19:38:29;10.45;74.90
13091;DHT22;6611;52.604;13.438;2023-04-29T19:43:31;10.35;75.64
13091;DHT22;6611;52.604;13.438;2023-04-29T19:48:32;10.30;76.14
13091;DHT22;6611;52.604;13.438;2023-04-29T19:53:36;10.22;76.60
13091;DHT22;6611;52.604;13.438;2023-04-29T19:58:37;10.21;76.67
13091;DHT22;6611;52.604;13.438;2023-04-29T20:03:39;10.27;75.98
13091;DHT22;6611;52.604;13.438;2023-04-29T20:08:42;10.21;76.05
13091;DHT22;6611;52.604;13.438;2023-04-29T20:13:44;10.15;76.05
13091;DHT22;6611;52.604;13.438;2023-04-29T20:18:46;9.97;76.25
13091;DHT22;6611;52.604;13.438;2023-04-29T20:23:49;9.75;76.64
13091;DHT22;6611;52.604;13.438;2023-04-29T20:28:51;9.58;77.16
13091;DHT22;6611;52.604;13.438;2023-04-29T20:33:53;9.35;77.86
13091;DHT22;6611;52.604;13.438;2023-04-29T20:38:56;9.32;78.02
13091;DHT22;6611;52.604;13.438;2023-04-29T20:43:57;9.23;79.03
13091;DHT22;6611;52.604;13.438;2023-04-29T20:48:59;9.26;78.69
13091;DHT22;6611;52.604;13.438;2023-04-29T20:54:04;9.24;78.40
13091;DHT22;6611;52.604;13.438;2023-04-29T20:59:06;9.16;78.37
13091;DHT22;6611;52.604;13.438;2023-04-29T21:04:08;9.07;78.04
13091;DHT22;6611;52.604;13.438;2023-04-29T21:09:12;9.01;78.26
13091;DHT22;6611;52.604;13.438;2023-04-29T21:14:14;9.04;78.11
13091;DHT22;6611;52.604;13.438;2023-04-29T21:19:16;9.14;76.76
13091;DHT22;6611;52.604;13.438;2023-04-29T21:24:19;9.28;75.74
13091;DHT22;6611;52.604;13.438;2023-04-29T21:29:21;9.41;75.16
13091;DHT22;6611;52.604;13.438;2023-04-29T21:34:23;9.45;75.70
13091;DHT22;6611;52.604;13.438;2023-04-29T21:39:26;9.48;75.16
13091;DHT22;6611;52.604;13.438;2023-04-29T21:44:27;9.49;74.51
13091;DHT22;6611;52.604;13.438;2023-04-29T21:49:29;9.55;74.24
13091;DHT22;6611;52.604;13.438;2023-04-29T21:54:33;9.52;74.15
13091;DHT22;6611;52.604;13.438;2023-04-29T21:59:34;9.45;74.70
13091;DHT22;6611;52.604;13.438;2023-04-29T22:04:36;9.35;74.65
13091;DHT22;6611;52.604;13.438;2023-04-29T22:09:39;9.34;74.30
13091;DHT22;6611;52.604;13.438;2023-04-29T22:14:41;9.28;74.31
13091;DHT22;6611;52.604;13.438;2023-04-29T22:19:42;9.30;75.05
13091;DHT22;6611;52.604;13.438;2023-04-29T22:24:45;9.26;74.50
13091;DHT22;6611;52.604;13.438;2023-04-29T22:29:47;9.23;73.87
13091;DHT22;6611;52.604;13.438;2023-04-29T22:34:49;9.26;73.45
13091;DHT22;6611;52.604;13.438;2023-04-29T22:39:52;9.20;73.84
13091;DHT22;6611;52.604;13.438;2023-04-29T22:44:53;9.00;74.68
13091;DHT22;6611;52.604;13.438;2023-04-29T22:49:55;8.89;74.63
13091;DHT22;6611;52.604;13.438;2023-04-29T22:54:58;8.82;74.81
13091;DHT22;6611;52.604;13.438;2023-04-29T23:00:00;8.87;74.20
13091;DHT22;6611;52.604;13.438;2023-04-29T23:05:03;8.99;73.57
13091;DHT22;6611;52.604;13.438;2023-04-29T23:10:07;8.82;74.56
13091;DHT22;6611;52.604;13.438;2023-04-29T23:15:09;8.71;74.22
13091;DHT22;6611;52.604;13.438;2023-04-29T23:20:11;8.51;75.36
13091;DHT22;6611;52.604;13.438;2023-04-29T23:25:15;8.27;76.40
13091;DHT22;6611;52.604;13.438;2023-04-29T23:30:16;8.04;77.04
13091;DHT22;6611;52.604;13.438;2023-04-29T23:35:18;7.85;77.48
13091;DHT22;6611;52.604;13.438;2023-04-29T23:40:21;7.62;78.17
13091;DHT22;6611;52.604;13.438;2023-04-29T23:45:23;7.48;78.72
13091;DHT22;6611;52.604;13.438;2023-04-29T23:50:25;7.41;78.67
13091;DHT22;6611;52.604;13.438;2023-04-29T23:55:28;7.34;78.49
